createdAt,value
2017-08-03T00:01:58.503Z,18.05
2017-08-03T00:04:27.826Z,17.15
2017-08-03T00:06:57.912Z,17.83
2017-08-03T00:09:27.325Z,20.35
2017-08-03T00:11:56.651Z,19.92
2017-08-03T00:14:25.996Z,17.37
2017-08-03T00:16:55.321Z,20.25
2017-08-03T00:19:24.661Z,16.42
2017-08-03T00:21:53.998Z,18.12
2017-08-03T00:24:23.577Z,17.23
2017-08-03T00:26:53.661Z,19.05
2017-08-03T00:29:23.009Z,16.02
2017-08-03T00:31:52.317Z,20.73
2017-08-03T00:34:21.637Z,17.50
2017-08-03T00:36:50.977Z,19.40
2017-08-03T00:39:21.057Z,25.42
2017-08-03T00:41:50.389Z,17.60
2017-08-03T00:44:19.710Z,18.62
2017-08-03T00:46:49.047Z,18.40
2017-08-03T00:49:18.360Z,17.87
2017-08-03T00:51:47.693Z,16.85
2017-08-03T00:54:17.769Z,20.00
2017-08-03T00:56:47.109Z,19.87
2017-08-03T00:59:16.437Z,19.55
2017-08-03T01:01:45.744Z,17.10
2017-08-03T01:04:15.092Z,16.98
2017-08-03T01:06:44.399Z,18.83
2017-08-03T01:09:14.698Z,18.95
2017-08-03T01:11:44.013Z,18.75
2017-08-03T01:14:13.345Z,18.12
2017-08-03T01:16:42.657Z,19.00
2017-08-03T01:19:11.980Z,22.60
2017-08-03T01:21:42.060Z,21.90
2017-08-03T01:24:11.389Z,20.33
2017-08-03T01:26:40.709Z,22.90
2017-08-03T01:29:10.816Z,21.52
2017-08-03T01:31:40.128Z,23.77
2017-08-03T01:34:09.441Z,22.98
2017-08-03T01:36:38.781Z,22.05
2017-08-03T01:39:08.092Z,19.58
2017-08-03T01:41:37.416Z,19.45
2017-08-03T01:44:06.728Z,18.00
2017-08-03T01:46:37.896Z,19.23
2017-08-03T01:49:07.213Z,24.10
2017-08-03T01:51:36.541Z,19.40
2017-08-03T01:54:05.852Z,18.87
2017-08-03T01:56:35.200Z,23.45
2017-08-03T01:59:05.277Z,23.77
2017-08-03T02:01:34.616Z,18.98
2017-08-03T02:04:04.719Z,20.40
2017-08-03T02:06:34.037Z,22.30
2017-08-03T02:09:04.188Z,22.17
2017-08-03T02:11:33.508Z,22.00
2017-08-03T02:14:02.840Z,20.98
2017-08-03T02:16:32.161Z,20.45
2017-08-03T02:19:01.490Z,20.25
2017-08-03T02:21:30.804Z,20.88
2017-08-03T02:24:00.145Z,22.48
2017-08-03T02:26:29.460Z,20.45
2017-08-03T02:28:59.553Z,21.05
2017-08-03T02:31:28.886Z,19.48
2017-08-03T02:33:58.964Z,23.83
2017-08-03T02:36:28.289Z,19.35
2017-08-03T02:38:57.646Z,20.98
2017-08-03T02:41:26.976Z,24.48
2017-08-03T02:43:56.296Z,19.37
2017-08-03T02:46:25.624Z,23.08
2017-08-03T02:48:55.701Z,25.17
2017-08-03T02:51:25.028Z,20.20
2017-08-03T02:53:55.116Z,24.40
2017-08-03T02:56:24.476Z,21.23
2017-08-03T02:58:53.793Z,27.60
2017-08-03T03:01:23.145Z,21.00
2017-08-03T03:03:52.467Z,21.55
2017-08-03T03:06:22.568Z,23.48
2017-08-03T03:08:51.910Z,20.70
2017-08-03T03:11:21.229Z,19.23
2017-08-03T03:13:50.571Z,23.02
2017-08-03T03:16:20.695Z,23.75
2017-08-03T03:18:50.029Z,27.65
2017-08-03T03:21:19.344Z,21.08
2017-08-03T03:23:48.679Z,20.27
2017-08-03T03:26:18.004Z,21.17
2017-08-03T03:28:48.124Z,19.85
2017-08-03T03:31:17.446Z,24.37
2017-08-03T03:33:47.557Z,22.20
2017-08-03T03:36:16.884Z,18.70
2017-08-03T03:38:46.310Z,21.23
2017-08-03T03:41:16.801Z,25.02
2017-08-03T03:43:46.877Z,23.83
2017-08-03T03:46:16.212Z,25.42
2017-08-03T03:48:46.319Z,22.80
2017-08-03T03:51:15.653Z,28.25
2017-08-03T03:53:44.964Z,22.27
2017-08-03T03:56:14.332Z,25.12
2017-08-03T03:58:43.649Z,30.10
2017-08-03T04:01:13.004Z,29.05
2017-08-03T04:03:43.097Z,22.75
2017-08-03T04:06:12.457Z,20.75
2017-08-03T04:08:41.792Z,23.12
2017-08-03T04:11:11.118Z,20.52
2017-08-03T04:13:40.464Z,24.75
2017-08-03T04:16:09.854Z,21.80
2017-08-03T04:18:39.514Z,25.62
2017-08-03T04:21:08.836Z,27.48
2017-08-03T04:23:38.193Z,21.42
2017-08-03T04:26:10.817Z,26.55
2017-08-03T04:28:40.159Z,23.95
2017-08-03T04:31:09.490Z,21.92
2017-08-03T04:33:38.824Z,22.35
2017-08-03T04:36:08.140Z,20.42
2017-08-03T04:38:38.248Z,21.10
2017-08-03T04:41:07.647Z,17.45
2017-08-03T04:43:38.385Z,21.67
2017-08-03T04:46:07.701Z,16.17
2017-08-03T04:48:37.804Z,19.23
2017-08-03T04:51:07.125Z,24.52
2017-08-03T04:53:37.229Z,17.73
2017-08-03T04:56:06.547Z,17.40
2017-08-03T04:58:36.643Z,18.60
2017-08-03T05:01:05.981Z,17.75
2017-08-03T05:03:35.930Z,21.55
2017-08-03T05:06:05.261Z,20.90
2017-08-03T05:08:34.594Z,17.77
2017-08-03T05:11:03.921Z,19.58
2017-08-03T05:13:33.857Z,20.12
2017-08-03T05:16:03.204Z,19.10
2017-08-03T05:18:33.289Z,26.05
2017-08-03T05:21:02.628Z,23.15
2017-08-03T05:23:32.713Z,20.60
2017-08-03T05:26:02.057Z,16.98
2017-08-03T05:28:31.492Z,19.25
2017-08-03T05:31:00.859Z,18.20
2017-08-03T05:33:30.189Z,20.92
2017-08-03T05:36:03.768Z,19.85
2017-08-03T05:38:33.851Z,23.17
2017-08-03T05:41:03.197Z,19.80
2017-08-03T05:43:32.509Z,24.67
2017-08-03T05:46:01.829Z,20.52
2017-08-03T05:48:31.188Z,17.30
2017-08-03T05:51:01.272Z,17.42
2017-08-03T05:53:30.608Z,18.77
2017-08-03T05:56:00.696Z,24.55
2017-08-03T05:58:30.037Z,25.00
2017-08-03T06:00:59.353Z,18.65
2017-08-03T06:03:28.698Z,20.05
2017-08-03T06:05:58.030Z,20.60
2017-08-03T06:08:28.129Z,22.13
2017-08-03T06:10:57.450Z,23.55
2017-08-03T06:13:27.545Z,15.52
2017-08-03T06:15:56.880Z,17.48
2017-08-03T06:18:26.973Z,20.10
2017-08-03T06:20:56.293Z,14.98
2017-08-03T06:23:26.397Z,18.12
2017-08-03T06:25:55.745Z,16.52
2017-08-03T06:28:25.094Z,18.45
2017-08-03T06:30:54.430Z,18.40
2017-08-03T06:33:24.535Z,16.60
2017-08-03T06:35:54.662Z,12.95
2017-08-03T06:38:24.748Z,22.80
2017-08-03T06:40:54.086Z,24.73
2017-08-03T06:43:24.170Z,16.83
2017-08-03T06:45:53.501Z,16.65
2017-08-03T06:48:23.595Z,18.00
2017-08-03T06:50:52.926Z,19.95
2017-08-03T06:53:23.026Z,15.88
2017-08-03T06:55:52.370Z,20.85
2017-08-03T06:58:21.753Z,18.55
2017-08-03T07:00:51.854Z,18.85
2017-08-03T07:03:22.070Z,16.42
2017-08-03T07:05:51.411Z,17.12
2017-08-03T07:08:37.290Z,18.10
2017-08-03T07:11:07.706Z,15.43
2017-08-03T07:13:37.801Z,19.23
2017-08-03T07:16:07.149Z,18.65
2017-08-03T07:18:37.231Z,16.90
2017-08-03T07:21:06.889Z,17.60
2017-08-03T07:23:36.210Z,15.85
2017-08-03T07:26:05.527Z,20.80
2017-08-03T07:28:34.885Z,23.67
2017-08-03T07:31:04.205Z,19.55
2017-08-03T07:33:33.533Z,18.92
2017-08-03T07:36:02.859Z,17.00
2017-08-03T07:38:32.197Z,18.55
2017-08-03T07:41:01.515Z,18.40
2017-08-03T07:43:30.860Z,20.02
2017-08-03T07:46:00.202Z,20.92
2017-08-03T07:48:29.536Z,23.83
2017-08-03T07:50:58.865Z,31.60
2017-08-03T07:53:28.249Z,25.83
2017-08-03T07:55:57.615Z,24.33
2017-08-03T07:58:27.017Z,26.30
2017-08-03T08:00:56.643Z,21.23
2017-08-03T08:03:26.122Z,21.00
2017-08-03T08:05:55.469Z,22.55
2017-08-03T08:08:24.836Z,21.40
2017-08-03T08:10:54.183Z,26.95
2017-08-03T08:13:47.036Z,22.30
2017-08-03T08:16:17.168Z,23.33
2017-08-03T08:18:46.500Z,22.25
2017-08-03T08:21:15.853Z,26.20
2017-08-03T08:23:45.200Z,23.87
2017-08-03T08:26:15.303Z,22.35
2017-08-03T08:28:44.701Z,35.85
2017-08-03T08:31:14.029Z,26.87
2017-08-03T08:33:44.133Z,30.65
2017-08-03T08:36:13.491Z,21.90
2017-08-03T08:38:42.889Z,25.35
2017-08-03T08:41:12.210Z,28.75
2017-08-03T08:43:41.557Z,25.85
2017-08-03T08:46:10.901Z,26.30
2017-08-03T08:48:41.222Z,24.48
2017-08-03T08:51:10.533Z,21.27
2017-08-03T08:53:39.886Z,24.33
2017-08-03T08:56:09.242Z,23.27
2017-08-03T08:58:38.628Z,20.42
2017-08-03T09:01:07.966Z,27.27
2017-08-03T09:03:37.297Z,22.70
2017-08-03T09:06:06.631Z,26.25
2017-08-03T09:08:35.980Z,27.35
2017-08-03T09:11:06.082Z,25.33
2017-08-03T09:13:36.807Z,22.83
2017-08-03T09:16:06.148Z,25.08
2017-08-03T09:18:35.481Z,27.58
2017-08-03T09:21:04.882Z,27.10
2017-08-03T09:23:34.231Z,25.85
2017-08-03T09:26:03.588Z,27.25
2017-08-03T09:28:32.981Z,21.02
2017-08-03T09:31:02.329Z,23.83
2017-08-03T09:33:31.670Z,20.37
2017-08-03T09:36:01.006Z,23.60
2017-08-03T09:38:30.348Z,21.48
2017-08-03T09:40:59.693Z,26.20
2017-08-03T09:43:29.033Z,22.40
2017-08-03T09:46:01.164Z,20.00
2017-08-03T09:48:30.507Z,21.45
2017-08-03T09:51:00.686Z,16.05
2017-08-03T09:53:32.413Z,16.75
2017-08-03T09:56:03.341Z,15.20
2017-08-03T09:58:32.700Z,16.40
2017-08-03T10:01:02.051Z,14.65
2017-08-03T10:03:31.377Z,23.80
2017-08-03T10:06:00.012Z,16.92
2017-08-03T10:08:29.139Z,12.73
2017-08-03T10:10:58.536Z,16.90
2017-08-03T10:13:27.845Z,13.63
2017-08-03T10:15:57.180Z,13.10
2017-08-03T10:18:26.507Z,13.30
2017-08-03T10:20:56.605Z,10.70
2017-08-03T10:23:25.928Z,16.40
2017-08-03T10:25:56.049Z,15.07
2017-08-03T10:28:26.128Z,14.53
2017-08-03T10:30:55.472Z,13.73
2017-08-03T10:33:25.579Z,10.60
2017-08-03T10:35:54.901Z,12.83
2017-08-03T10:38:25.009Z,14.10
2017-08-03T10:40:55.091Z,16.33
2017-08-03T10:43:24.425Z,8.60
2017-08-03T10:45:53.735Z,14.77
2017-08-03T10:48:23.826Z,16.30
2017-08-03T10:50:53.166Z,17.60
2017-08-03T10:53:22.490Z,15.33
2017-08-03T10:55:51.803Z,14.40
2017-08-03T10:58:21.154Z,11.73
2017-08-03T11:00:50.565Z,11.20
2017-08-03T11:03:19.882Z,18.07
2017-08-03T11:05:49.224Z,17.33
2017-08-03T11:08:18.544Z,18.63
2017-08-03T11:10:47.889Z,10.17
2017-08-03T11:13:18.001Z,10.20
2017-08-03T11:15:47.345Z,12.27
2017-08-03T11:18:16.663Z,16.13
2017-08-03T11:20:46.745Z,12.90
2017-08-03T11:23:16.065Z,19.90
2017-08-03T11:25:45.429Z,8.70
2017-08-03T11:28:14.739Z,11.57
2017-08-03T11:30:44.106Z,15.67
2017-08-03T11:33:13.480Z,12.50
2017-08-03T11:35:42.802Z,13.63
2017-08-03T11:38:12.143Z,9.47
2017-08-03T11:40:42.288Z,8.53
2017-08-03T11:43:11.636Z,11.00
2017-08-03T11:45:40.941Z,14.27
2017-08-03T11:48:10.268Z,8.33
2017-08-03T11:50:40.396Z,11.10
2017-08-03T11:53:09.741Z,14.47
2017-08-03T11:55:39.065Z,10.43
2017-08-03T11:58:08.397Z,11.83
2017-08-03T12:00:37.716Z,16.57
2017-08-03T12:03:07.554Z,10.30
2017-08-03T12:05:36.868Z,11.47
2017-08-03T12:08:06.185Z,10.07
2017-08-03T12:10:37.000Z,11.97
2017-08-03T12:13:07.706Z,14.30
2017-08-03T12:15:37.950Z,15.30
2017-08-03T12:18:07.439Z,13.73
2017-08-03T12:20:36.757Z,13.30
2017-08-03T12:23:06.083Z,20.93
2017-08-03T12:25:35.414Z,14.50
2017-08-03T12:28:04.729Z,13.30
2017-08-03T12:30:36.991Z,17.33
2017-08-03T12:33:06.313Z,13.03
2017-08-03T12:35:35.655Z,11.60
2017-08-03T12:38:04.981Z,19.37
2017-08-03T12:40:35.074Z,9.40
2017-08-03T12:43:04.405Z,11.87
2017-08-03T12:45:34.500Z,12.90
2017-08-03T12:48:03.903Z,15.87
2017-08-03T12:50:33.248Z,15.43
2017-08-03T12:53:02.573Z,12.23
2017-08-03T12:55:31.876Z,12.40
2017-08-03T12:58:01.213Z,9.17
2017-08-03T13:00:30.526Z,9.60
2017-08-03T13:02:59.854Z,15.37
2017-08-03T13:05:29.173Z,19.53
2017-08-03T13:07:58.503Z,7.80
2017-08-03T13:10:27.823Z,10.83
2017-08-03T13:12:57.161Z,11.70
2017-08-03T13:15:26.472Z,14.00
2017-08-03T13:17:55.820Z,13.73
2017-08-03T13:20:25.141Z,8.80
2017-08-03T13:22:54.445Z,9.97
2017-08-03T13:25:24.540Z,19.23
2017-08-03T13:27:53.852Z,20.13
2017-08-03T13:30:23.181Z,7.63
2017-08-03T13:32:52.497Z,11.37
2017-08-03T13:35:21.851Z,10.13
2017-08-03T13:37:51.169Z,10.87
2017-08-03T13:40:21.265Z,17.30
2017-08-03T13:42:50.581Z,10.03
2017-08-03T13:45:19.945Z,7.83
2017-08-03T13:47:49.257Z,12.00
2017-08-03T13:50:18.577Z,16.07
2017-08-03T13:52:47.922Z,9.73
2017-08-03T13:55:17.244Z,8.27
2017-08-03T13:57:46.588Z,12.40
2017-08-03T14:00:15.898Z,10.73
2017-08-03T14:02:45.247Z,10.73
2017-08-03T14:05:15.513Z,10.83
2017-08-03T14:07:44.838Z,10.90
2017-08-03T14:10:14.196Z,9.83
2017-08-03T14:12:43.536Z,14.67
2017-08-03T14:15:13.631Z,11.30
2017-08-03T14:17:42.970Z,8.07
2017-08-03T14:20:13.091Z,18.50
2017-08-03T14:22:42.437Z,16.83
2017-08-03T14:25:11.800Z,11.83
2017-08-03T14:27:41.112Z,13.37
2017-08-03T14:30:10.464Z,13.97
2017-08-03T14:32:39.776Z,12.97
2017-08-03T14:35:09.103Z,8.33
2017-08-03T14:37:39.184Z,11.70
2017-08-03T14:40:08.530Z,15.70
2017-08-03T14:42:37.863Z,10.97
2017-08-03T14:45:07.180Z,12.20
2017-08-03T14:47:36.520Z,10.63
2017-08-03T14:50:06.628Z,15.97
2017-08-03T14:52:36.734Z,14.00
2017-08-03T14:55:06.162Z,11.30
2017-08-03T14:57:36.256Z,14.63
2017-08-03T15:00:05.591Z,9.40
2017-08-03T15:02:35.696Z,12.40
2017-08-03T15:05:05.783Z,14.10
2017-08-03T15:07:35.113Z,13.40
2017-08-03T15:10:04.449Z,14.53
2017-08-03T15:12:33.769Z,15.70
2017-08-03T15:15:03.097Z,11.90
2017-08-03T15:17:32.408Z,8.20
2017-08-03T15:20:01.753Z,11.07
2017-08-03T15:22:31.093Z,11.37
2017-08-03T15:25:00.429Z,14.60
2017-08-03T15:27:30.528Z,15.93
2017-08-03T15:29:59.874Z,9.23
2017-08-03T15:32:29.203Z,8.93
2017-08-03T15:34:58.521Z,14.33
2017-08-03T15:37:27.854Z,13.50
2017-08-03T15:39:57.997Z,13.87
2017-08-03T15:42:27.349Z,11.27
2017-08-03T15:44:56.672Z,12.10
2017-08-03T15:47:26.059Z,11.40
2017-08-03T15:49:55.460Z,11.27
2017-08-03T15:52:24.809Z,12.50
2017-08-03T15:54:54.120Z,11.33
2017-08-03T15:57:23.477Z,8.17
2017-08-03T15:59:53.571Z,13.50
2017-08-03T16:02:22.908Z,9.00
2017-08-03T16:04:52.232Z,11.80
2017-08-03T16:07:22.329Z,10.00
2017-08-03T16:09:51.649Z,8.63
2017-08-03T16:12:21.734Z,12.90
2017-08-03T16:14:51.065Z,12.33
2017-08-03T16:17:21.148Z,14.40
2017-08-03T16:19:51.416Z,10.00
2017-08-03T16:22:20.987Z,11.37
2017-08-03T16:24:50.314Z,9.37
2017-08-03T16:27:19.673Z,11.10
2017-08-03T16:29:48.981Z,8.53
2017-08-03T16:32:18.316Z,9.00
2017-08-03T16:34:48.396Z,10.10
2017-08-03T16:37:21.402Z,8.40
2017-08-03T16:39:50.904Z,8.77
2017-08-03T16:42:20.312Z,7.70
2017-08-03T16:44:49.624Z,10.50
2017-08-03T16:47:18.945Z,7.10
2017-08-03T16:49:48.285Z,8.57
2017-08-03T16:52:17.618Z,8.20
2017-08-03T16:54:47.687Z,6.70
2017-08-03T16:57:17.016Z,7.67
2017-08-03T16:59:46.327Z,6.50
2017-08-03T17:02:16.399Z,6.80
2017-08-03T17:04:45.725Z,8.30
2017-08-03T17:07:15.036Z,7.47
2017-08-03T17:09:44.367Z,6.70
2017-08-03T17:12:13.664Z,7.73
2017-08-03T17:14:43.018Z,6.33
2017-08-03T17:17:12.365Z,5.70
2017-08-03T17:19:41.686Z,8.20
2017-08-03T17:22:11.004Z,4.90
2017-08-03T17:24:40.348Z,7.97
2017-08-03T17:27:09.656Z,7.30
2017-08-03T17:29:39.026Z,7.50
2017-08-03T17:32:08.382Z,10.60
2017-08-03T17:34:38.588Z,9.43
2017-08-03T17:37:07.912Z,10.03
2017-08-03T17:39:37.228Z,7.77
2017-08-03T17:42:06.560Z,6.20
2017-08-03T17:44:35.889Z,6.63
2017-08-03T17:47:05.261Z,6.50
2017-08-03T17:49:34.568Z,6.20
2017-08-03T17:52:03.963Z,10.77
2017-08-03T17:54:33.279Z,6.50
2017-08-03T17:57:02.627Z,7.27
2017-08-03T17:59:32.755Z,8.60
2017-08-03T18:02:02.987Z,5.93
2017-08-03T18:04:32.301Z,8.17
2017-08-03T18:07:01.602Z,6.97
2017-08-03T18:09:30.929Z,7.80
2017-08-03T18:12:01.248Z,8.10
2017-08-03T18:14:30.576Z,13.87
2017-08-03T18:16:59.927Z,5.73
2017-08-03T18:19:29.262Z,6.87
2017-08-03T18:21:58.619Z,8.13
2017-08-03T18:24:28.704Z,8.30
2017-08-03T18:26:58.792Z,6.80
2017-08-03T18:29:28.128Z,5.45
2017-08-03T18:31:58.211Z,7.23
2017-08-03T18:34:27.536Z,6.50
2017-08-03T18:36:56.900Z,6.27
2017-08-03T18:39:26.241Z,10.70
2017-08-03T18:41:55.557Z,8.90
2017-08-03T18:44:25.666Z,6.03
2017-08-03T18:46:54.980Z,5.47
2017-08-03T18:49:25.085Z,7.70
2017-08-03T18:51:54.404Z,8.70
2017-08-03T18:54:24.502Z,7.43
2017-08-03T18:56:53.830Z,6.97
2017-08-03T18:59:23.180Z,6.43
2017-08-03T19:01:52.511Z,6.35
2017-08-03T19:04:21.824Z,7.28
2017-08-03T19:06:51.152Z,7.43
2017-08-03T19:09:20.485Z,10.38
2017-08-03T19:11:49.823Z,7.95
2017-08-03T19:14:20.974Z,6.07
2017-08-03T19:16:50.369Z,7.15
2017-08-03T19:19:20.312Z,8.77
2017-08-03T19:21:49.949Z,10.60
2017-08-03T19:24:19.293Z,8.27
2017-08-03T19:26:49.424Z,9.52
2017-08-03T19:29:19.548Z,9.93
2017-08-03T19:31:48.971Z,8.38
2017-08-03T19:34:19.802Z,11.02
2017-08-03T19:36:49.139Z,10.43
2017-08-03T19:39:18.823Z,13.50
2017-08-03T19:41:48.165Z,13.65
2017-08-03T19:44:18.265Z,7.15
2017-08-03T19:46:47.599Z,7.20
2017-08-03T19:49:17.026Z,14.85
2017-08-03T19:51:46.368Z,9.02
2017-08-03T19:54:15.727Z,7.70
2017-08-03T19:56:45.235Z,9.90
2017-08-03T19:59:14.557Z,9.65
2017-08-03T20:01:43.974Z,9.00
2017-08-03T20:04:13.322Z,10.88
2017-08-03T20:06:48.652Z,9.18
2017-08-03T20:09:24.657Z,9.18
2017-08-03T20:11:54.804Z,10.65
2017-08-03T20:14:24.349Z,9.20
2017-08-03T20:16:53.677Z,8.75
2017-08-03T20:19:23.002Z,10.35
2017-08-03T20:21:52.417Z,10.30
2017-08-03T20:24:21.741Z,8.88
2017-08-03T20:26:51.076Z,10.00
2017-08-03T20:29:20.466Z,9.32
2017-08-03T20:31:50.115Z,10.55
2017-08-03T20:34:20.255Z,12.65
2017-08-03T20:36:49.565Z,10.07
2017-08-03T20:39:18.912Z,11.43
2017-08-03T20:41:48.253Z,12.80
2017-08-03T20:44:17.590Z,9.43
2017-08-03T20:46:46.911Z,12.57
2017-08-03T20:49:16.376Z,8.65
2017-08-03T20:51:45.720Z,10.27
2017-08-03T20:54:15.052Z,9.98
2017-08-03T20:56:44.385Z,7.87
2017-08-03T20:59:13.734Z,7.30
2017-08-03T21:01:43.084Z,13.77
2017-08-03T21:04:12.413Z,11.27
2017-08-03T21:06:41.735Z,11.32
2017-08-03T21:09:11.825Z,14.77
2017-08-03T21:11:41.211Z,9.50
2017-08-03T21:14:10.528Z,11.07
2017-08-03T21:16:40.007Z,9.75
2017-08-03T21:19:09.338Z,7.32
2017-08-03T21:21:39.619Z,10.68
2017-08-03T21:24:09.699Z,7.70
2017-08-03T21:26:39.033Z,12.63
2017-08-03T21:29:09.504Z,6.72
2017-08-03T21:31:39.738Z,10.30
2017-08-03T21:34:14.470Z,8.20
2017-08-03T21:36:43.990Z,10.75
2017-08-03T21:39:13.397Z,9.30
2017-08-03T21:41:42.713Z,5.28
2017-08-03T21:44:12.806Z,6.05
2017-08-03T21:46:42.118Z,5.75
2017-08-03T21:49:11.455Z,9.98
2017-08-03T21:51:41.549Z,4.35
2017-08-03T21:54:11.641Z,5.55
2017-08-03T21:56:40.953Z,8.18
2017-08-03T21:59:10.275Z,5.53
2017-08-03T22:01:39.589Z,4.00
2017-08-03T22:04:09.730Z,4.97
2017-08-03T22:06:39.037Z,9.27
2017-08-03T22:09:08.389Z,4.35
2017-08-03T22:11:37.692Z,9.65
2017-08-03T22:14:07.040Z,7.57
2017-08-03T22:16:37.106Z,4.60
2017-08-03T22:19:06.443Z,6.87
2017-08-03T22:21:35.777Z,4.75
2017-08-03T22:24:05.092Z,6.32
2017-08-03T22:26:34.420Z,6.22
2017-08-03T22:29:03.820Z,5.65
2017-08-03T22:31:33.132Z,5.97
2017-08-03T22:34:03.220Z,5.30
2017-08-03T22:36:32.745Z,5.68
2017-08-03T22:39:02.191Z,6.03
2017-08-03T22:41:31.649Z,5.62
2017-08-03T22:44:01.032Z,3.75
2017-08-03T22:46:30.421Z,7.45
2017-08-03T22:48:59.736Z,5.20
2017-08-03T22:51:29.048Z,7.28
2017-08-03T22:53:58.372Z,4.18
2017-08-03T22:56:27.833Z,3.95
2017-08-03T22:58:57.164Z,6.93
2017-08-03T23:01:26.621Z,4.30
2017-08-03T23:03:55.968Z,7.53
2017-08-03T23:06:25.371Z,4.30
2017-08-03T23:08:54.931Z,5.22
2017-08-03T23:11:24.233Z,5.30
2017-08-03T23:13:53.644Z,4.87
2017-08-03T23:16:22.956Z,7.28
2017-08-03T23:18:52.309Z,4.35
2017-08-03T23:21:21.836Z,7.30
2017-08-03T23:23:51.381Z,9.30
2017-08-03T23:26:20.700Z,4.80
2017-08-03T23:28:50.045Z,4.65
2017-08-03T23:31:19.401Z,5.47
2017-08-03T23:33:49.481Z,9.40
2017-08-03T23:36:18.804Z,5.50
2017-08-03T23:38:48.888Z,7.32
2017-08-03T23:41:18.212Z,8.63
2017-08-03T23:43:47.524Z,5.62
2017-08-03T23:46:16.884Z,5.85
2017-08-03T23:48:46.221Z,4.45
2017-08-03T23:51:15.540Z,6.47
2017-08-03T23:53:45.613Z,7.03
2017-08-03T23:56:14.947Z,9.05
2017-08-03T23:58:44.254Z,5.47
